NCAR-RAP Real-Time Weather Data

Output produced by METARs form (10 April 2020  06:33 UTC)
found at http://weather.rap.ucar.edu/surface/
 
KDTW 100553Z 30014G22KT 10SM FEW035 SCT090 BKN200 02/M03 A2970 RMK AO2 PK WND 29026/0529 SLP059 60000 T00171033 10033 20011 53000